Terminal Aerodrome Forecast
Issued by NWS

Home | Current Version | Previous Version | Text Only | Print | Product List | Glossary Off
Versions: 1 2 3 4 5 6 7 8 9 10 11 12 13 14 15 16 17 18 19 20 21

000
FTUS43 KTOP 312300
TAFMHK
TAF
KMHK 312328Z 0100/0124 13010KT 4SM -RA BR OVC008
     FM010300 13006KT 1 1/2SM -RA BR OVC004
     FM011000 34013G24KT 2SM -SN BR OVC007
     FM011700 35019G29KT 4SM -SN BR OVC008=

USA.gov is the U.S. government's official web portal to all federal, state and local government web resources and services.